sensor_id;sensor_type;location;lat;lon;timestamp;temperature;humidity
5476;DHT22;2760;50.000;9.194;2022-09-09T00:01:22;14.90;99.90
5476;DHT22;2760;50.000;9.194;2022-09-09T00:03:56;14.80;99.90
5476;DHT22;2760;50.000;9.194;2022-09-09T00:06:28;15.70;99.90
5476;DHT22;2760;50.000;9.194;2022-09-09T00:09:02;16.60;99.90
5476;DHT22;2760;50.000;9.194;2022-09-09T00:11:39;16.10;99.90
5476;DHT22;2760;50.000;9.194;2022-09-09T00:14:14;14.60;99.90
5476;DHT22;2760;50.000;9.194;2022-09-09T00:16:50;14.70;99.90
5476;DHT22;2760;50.000;9.194;2022-09-09T00:19:23;14.70;99.90
5476;DHT22;2760;50.000;9.194;2022-09-09T00:22:00;15.10;99.90
5476;DHT22;2760;50.000;9.194;2022-09-09T00:24:40;14.30;99.90
5476;DHT22;2760;50.000;9.194;2022-09-09T00:27:14;14.30;99.90
5476;DHT22;2760;50.000;9.194;2022-09-09T00:29:47;14.40;99.90
5476;DHT22;2760;50.000;9.194;2022-09-09T00:32:18;14.40;99.90
5476;DHT22;2760;50.000;9.194;2022-09-09T00:34:49;14.20;99.90
5476;DHT22;2760;50.000;9.194;2022-09-09T00:37:16;15.40;99.90
5476;DHT22;2760;50.000;9.194;2022-09-09T00:39:46;14.30;99.90
5476;DHT22;2760;50.000;9.194;2022-09-09T00:42:16;15.20;99.90
5476;DHT22;2760;50.000;9.194;2022-09-09T00:44:52;14.50;99.90
5476;DHT22;2760;50.000;9.194;2022-09-09T00:47:40;14.70;99.90
5476;DHT22;2760;50.000;9.194;2022-09-09T00:50:29;14.60;99.90
5476;DHT22;2760;50.000;9.194;2022-09-09T00:53:08;15.50;99.90
5476;DHT22;2760;50.000;9.194;2022-09-09T00:55:43;14.50;99.90
5476;DHT22;2760;50.000;9.194;2022-09-09T00:58:12;16.40;99.90
5476;DHT22;2760;50.000;9.194;2022-09-09T01:00:43;15.60;99.90
5476;DHT22;2760;50.000;9.194;2022-09-09T01:03:19;14.40;99.90
5476;DHT22;2760;50.000;9.194;2022-09-09T01:05:57;14.60;99.90
5476;DHT22;2760;50.000;9.194;2022-09-09T01:08:39;15.80;99.90
5476;DHT22;2760;50.000;9.194;2022-09-09T01:11:15;16.50;99.90
5476;DHT22;2760;50.000;9.194;2022-09-09T01:13:45;13.90;99.90
5476;DHT22;2760;50.000;9.194;2022-09-09T01:16:16;16.20;99.90
5476;DHT22;2760;50.000;9.194;2022-09-09T01:18:47;14.60;99.90
5476;DHT22;2760;50.000;9.194;2022-09-09T01:21:22;14.70;99.90
5476;DHT22;2760;50.000;9.194;2022-09-09T01:24:07;16.00;99.90
5476;DHT22;2760;50.000;9.194;2022-09-09T01:27:00;14.90;99.90
5476;DHT22;2760;50.000;9.194;2022-09-09T01:29:29;14.60;99.90
5476;DHT22;2760;50.000;9.194;2022-09-09T01:31:57;15.40;99.90
5476;DHT22;2760;50.000;9.194;2022-09-09T01:34:28;15.00;99.90
5476;DHT22;2760;50.000;9.194;2022-09-09T01:36:59;14.70;99.90
5476;DHT22;2760;50.000;9.194;2022-09-09T01:39:28;16.50;99.90
5476;DHT22;2760;50.000;9.194;2022-09-09T01:42:05;14.70;99.90
5476;DHT22;2760;50.000;9.194;2022-09-09T01:44:34;14.70;99.90
5476;DHT22;2760;50.000;9.194;2022-09-09T01:47:03;16.20;99.90
5476;DHT22;2760;50.000;9.194;2022-09-09T01:49:31;14.70;99.90
5476;DHT22;2760;50.000;9.194;2022-09-09T01:52:04;15.50;99.90
5476;DHT22;2760;50.000;9.194;2022-09-09T01:54:36;15.60;99.90
5476;DHT22;2760;50.000;9.194;2022-09-09T01:57:17;14.60;99.90
5476;DHT22;2760;50.000;9.194;2022-09-09T02:00:00;15.10;99.90
5476;DHT22;2760;50.000;9.194;2022-09-09T02:02:46;14.80;99.90
5476;DHT22;2760;50.000;9.194;2022-09-09T02:05:27;14.90;99.90
5476;DHT22;2760;50.000;9.194;2022-09-09T02:08:03;15.80;99.90
5476;DHT22;2760;50.000;9.194;2022-09-09T02:10:46;16.20;99.90
5476;DHT22;2760;50.000;9.194;2022-09-09T02:13:28;14.90;99.90
5476;DHT22;2760;50.000;9.194;2022-09-09T02:15:57;15.00;99.90
5476;DHT22;2760;50.000;9.194;2022-09-09T02:18:29;14.80;99.90
5476;DHT22;2760;50.000;9.194;2022-09-09T02:20:59;15.60;99.90
5476;DHT22;2760;50.000;9.194;2022-09-09T02:23:28;14.80;99.90
5476;DHT22;2760;50.000;9.194;2022-09-09T02:25:57;15.80;99.90
5476;DHT22;2760;50.000;9.194;2022-09-09T02:28:28;14.80;99.90
5476;DHT22;2760;50.000;9.194;2022-09-09T02:30:56;14.70;99.90
5476;DHT22;2760;50.000;9.194;2022-09-09T02:33:35;15.90;99.90
5476;DHT22;2760;50.000;9.194;2022-09-09T02:36:05;15.10;99.90
5476;DHT22;2760;50.000;9.194;2022-09-09T02:38:40;16.80;99.90
5476;DHT22;2760;50.000;9.194;2022-09-09T02:41:12;16.10;99.90
5476;DHT22;2760;50.000;9.194;2022-09-09T02:43:41;15.10;99.90
5476;DHT22;2760;50.000;9.194;2022-09-09T02:46:26;15.20;99.90
5476;DHT22;2760;50.000;9.194;2022-09-09T02:49:00;16.50;99.90
5476;DHT22;2760;50.000;9.194;2022-09-09T02:51:37;14.90;99.90
5476;DHT22;2760;50.000;9.194;2022-09-09T02:54:14;14.90;99.90
5476;DHT22;2760;50.000;9.194;2022-09-09T02:56:47;16.20;99.90
5476;DHT22;2760;50.000;9.194;2022-09-09T02:59:18;15.60;99.90
5476;DHT22;2760;50.000;9.194;2022-09-09T03:01:45;14.60;99.90
5476;DHT22;2760;50.000;9.194;2022-09-09T03:04:12;15.50;99.90
5476;DHT22;2760;50.000;9.194;2022-09-09T03:06:40;14.80;99.90
5476;DHT22;2760;50.000;9.194;2022-09-09T03:09:16;15.20;99.90
5476;DHT22;2760;50.000;9.194;2022-09-09T03:11:43;15.80;99.90
5476;DHT22;2760;50.000;9.194;2022-09-09T03:14:12;15.10;99.90
5476;DHT22;2760;50.000;9.194;2022-09-09T03:16:41;15.40;99.90
5476;DHT22;2760;50.000;9.194;2022-09-09T03:19:09;14.90;99.90
5476;DHT22;2760;50.000;9.194;2022-09-09T03:21:36;15.00;99.90
5476;DHT22;2760;50.000;9.194;2022-09-09T03:24:05;15.70;99.90
5476;DHT22;2760;50.000;9.194;2022-09-09T03:26:32;14.80;99.90
5476;DHT22;2760;50.000;9.194;2022-09-09T03:29:00;14.90;99.90
5476;DHT22;2760;50.000;9.194;2022-09-09T03:31:29;14.80;99.90
5476;DHT22;2760;50.000;9.194;2022-09-09T03:33:59;14.10;99.90
5476;DHT22;2760;50.000;9.194;2022-09-09T03:36:29;15.40;99.90
5476;DHT22;2760;50.000;9.194;2022-09-09T03:38:56;14.70;99.90
5476;DHT22;2760;50.000;9.194;2022-09-09T03:41:26;14.90;99.90
5476;DHT22;2760;50.000;9.194;2022-09-09T03:43:54;16.90;99.90
5476;DHT22;2760;50.000;9.194;2022-09-09T03:46:25;14.90;99.90
5476;DHT22;2760;50.000;9.194;2022-09-09T03:48:52;14.90;99.90
5476;DHT22;2760;50.000;9.194;2022-09-09T03:51:21;15.00;99.90
5476;DHT22;2760;50.000;9.194;2022-09-09T03:53:48;15.80;99.90
5476;DHT22;2760;50.000;9.194;2022-09-09T03:56:15;15.90;99.90
5476;DHT22;2760;50.000;9.194;2022-09-09T03:58:42;16.20;99.90
5476;DHT22;2760;50.000;9.194;2022-09-09T04:01:12;15.10;99.90
5476;DHT22;2760;50.000;9.194;2022-09-09T04:03:41;16.90;99.90
5476;DHT22;2760;50.000;9.194;2022-09-09T04:06:10;16.50;99.90
5476;DHT22;2760;50.000;9.194;2022-09-09T04:08:39;15.00;99.90
5476;DHT22;2760;50.000;9.194;2022-09-09T04:11:07;15.00;99.90
5476;DHT22;2760;50.000;9.194;2022-09-09T04:13:36;15.00;99.90
5476;DHT22;2760;50.000;9.194;2022-09-09T04:16:06;14.90;99.90
5476;DHT22;2760;50.000;9.194;2022-09-09T04:18:36;14.90;99.90
5476;DHT22;2760;50.000;9.194;2022-09-09T04:21:03;16.80;99.90
5476;DHT22;2760;50.000;9.194;2022-09-09T04:23:33;14.80;99.90
5476;DHT22;2760;50.000;9.194;2022-09-09T04:26:03;15.30;99.90
5476;DHT22;2760;50.000;9.194;2022-09-09T04:28:34;14.60;99.90
5476;DHT22;2760;50.000;9.194;2022-09-09T04:31:06;14.80;99.90
5476;DHT22;2760;50.000;9.194;2022-09-09T04:33:35;14.80;99.90
5476;DHT22;2760;50.000;9.194;2022-09-09T04:36:02;13.80;99.90
5476;DHT22;2760;50.000;9.194;2022-09-09T04:38:30;14.60;99.90
5476;DHT22;2760;50.000;9.194;2022-09-09T04:40:57;14.60;99.90
5476;DHT22;2760;50.000;9.194;2022-09-09T04:43:26;14.50;99.90
5476;DHT22;2760;50.000;9.194;2022-09-09T04:45:53;14.30;99.90
5476;DHT22;2760;50.000;9.194;2022-09-09T04:48:23;14.40;99.90
5476;DHT22;2760;50.000;9.194;2022-09-09T04:50:55;14.40;99.90
5476;DHT22;2760;50.000;9.194;2022-09-09T04:53:23;15.70;99.90
5476;DHT22;2760;50.000;9.194;2022-09-09T04:55:52;14.60;99.90
5476;DHT22;2760;50.000;9.194;2022-09-09T04:58:19;15.00;99.90
5476;DHT22;2760;50.000;9.194;2022-09-09T05:00:49;14.60;99.90
5476;DHT22;2760;50.000;9.194;2022-09-09T05:03:18;14.40;99.90
5476;DHT22;2760;50.000;9.194;2022-09-09T05:05:45;14.40;99.90
5476;DHT22;2760;50.000;9.194;2022-09-09T05:08:13;14.20;99.90
5476;DHT22;2760;50.000;9.194;2022-09-09T05:10:41;14.20;99.90
5476;DHT22;2760;50.000;9.194;2022-09-09T05:13:08;15.00;99.90
5476;DHT22;2760;50.000;9.194;2022-09-09T05:15:36;14.00;99.90
5476;DHT22;2760;50.000;9.194;2022-09-09T05:18:05;14.00;99.90
5476;DHT22;2760;50.000;9.194;2022-09-09T05:20:32;14.20;99.90
5476;DHT22;2760;50.000;9.194;2022-09-09T05:23:00;15.00;99.90
5476;DHT22;2760;50.000;9.194;2022-09-09T05:25:31;16.20;99.90
5476;DHT22;2760;50.000;9.194;2022-09-09T05:27:59;14.80;99.90
5476;DHT22;2760;50.000;9.194;2022-09-09T05:30:27;14.50;99.90
5476;DHT22;2760;50.000;9.194;2022-09-09T05:32:55;15.20;99.90
5476;DHT22;2760;50.000;9.194;2022-09-09T05:35:24;14.70;99.90
5476;DHT22;2760;50.000;9.194;2022-09-09T05:37:51;15.80;99.90
5476;DHT22;2760;50.000;9.194;2022-09-09T05:40:18;14.90;99.90
5476;DHT22;2760;50.000;9.194;2022-09-09T05:42:47;16.30;99.90
5476;DHT22;2760;50.000;9.194;2022-09-09T05:45:15;14.80;99.90
5476;DHT22;2760;50.000;9.194;2022-09-09T05:47:42;14.90;99.90
5476;DHT22;2760;50.000;9.194;2022-09-09T05:50:12;16.80;99.90
5476;DHT22;2760;50.000;9.194;2022-09-09T05:52:41;15.00;99.90
5476;DHT22;2760;50.000;9.194;2022-09-09T05:55:10;15.90;99.90
5476;DHT22;2760;50.000;9.194;2022-09-09T05:57:37;15.10;99.90
5476;DHT22;2760;50.000;9.194;2022-09-09T06:00:06;15.30;99.90
5476;DHT22;2760;50.000;9.194;2022-09-09T06:02:39;15.20;99.90
5476;DHT22;2760;50.000;9.194;2022-09-09T06:05:08;15.30;99.90
5476;DHT22;2760;50.000;9.194;2022-09-09T06:07:36;15.30;99.90
5476;DHT22;2760;50.000;9.194;2022-09-09T06:10:09;16.70;99.90
5476;DHT22;2760;50.000;9.194;2022-09-09T06:12:39;15.80;99.90
5476;DHT22;2760;50.000;9.194;2022-09-09T06:15:07;17.40;99.90
5476;DHT22;2760;50.000;9.194;2022-09-09T06:17:35;16.00;99.90
5476;DHT22;2760;50.000;9.194;2022-09-09T06:20:02;16.10;99.90
5476;DHT22;2760;50.000;9.194;2022-09-09T06:22:31;16.10;99.90
5476;DHT22;2760;50.000;9.194;2022-09-09T06:24:58;16.80;99.90
5476;DHT22;2760;50.000;9.194;2022-09-09T06:27:28;16.10;99.90
5476;DHT22;2760;50.000;9.194;2022-09-09T06:29:55;16.30;99.90
5476;DHT22;2760;50.000;9.194;2022-09-09T06:32:22;16.50;99.90
5476;DHT22;2760;50.000;9.194;2022-09-09T06:34:49;16.60;99.90
5476;DHT22;2760;50.000;9.194;2022-09-09T06:37:17;16.90;99.90
5476;DHT22;2760;50.000;9.194;2022-09-09T06:39:48;17.50;99.90
5476;DHT22;2760;50.000;9.194;2022-09-09T06:42:15;16.80;99.90
5476;DHT22;2760;50.000;9.194;2022-09-09T06:45:10;17.60;99.90
5476;DHT22;2760;50.000;9.194;2022-09-09T06:47:45;16.80;99.90
5476;DHT22;2760;50.000;9.194;2022-09-09T06:50:13;18.30;99.90
5476;DHT22;2760;50.000;9.194;2022-09-09T06:52:42;17.50;99.90
5476;DHT22;2760;50.000;9.194;2022-09-09T06:55:13;17.70;99.90
5476;DHT22;2760;50.000;9.194;2022-09-09T06:57:41;17.80;99.90
5476;DHT22;2760;50.000;9.194;2022-09-09T07:00:15;17.90;99.90
5476;DHT22;2760;50.000;9.194;2022-09-09T07:02:42;18.10;99.90
5476;DHT22;2760;50.000;9.194;2022-09-09T07:05:12;18.60;99.90
5476;DHT22;2760;50.000;9.194;2022-09-09T07:07:41;19.30;99.90
5476;DHT22;2760;50.000;9.194;2022-09-09T07:10:10;19.10;99.90
5476;DHT22;2760;50.000;9.194;2022-09-09T07:12:37;19.10;99.90
5476;DHT22;2760;50.000;9.194;2022-09-09T07:15:09;18.90;99.90
5476;DHT22;2760;50.000;9.194;2022-09-09T07:17:40;18.90;99.90
5476;DHT22;2760;50.000;9.194;2022-09-09T07:20:07;18.90;99.90
5476;DHT22;2760;50.000;9.194;2022-09-09T07:22:34;19.30;99.90
5476;DHT22;2760;50.000;9.194;2022-09-09T07:25:02;19.50;99.90
5476;DHT22;2760;50.000;9.194;2022-09-09T07:27:29;19.70;99.90
5476;DHT22;2760;50.000;9.194;2022-09-09T07:29:56;19.80;99.90
5476;DHT22;2760;50.000;9.194;2022-09-09T07:32:23;19.90;99.90
5476;DHT22;2760;50.000;9.194;2022-09-09T07:34:52;20.20;99.90
5476;DHT22;2760;50.000;9.194;2022-09-09T07:37:20;19.60;99.90
5476;DHT22;2760;50.000;9.194;2022-09-09T07:39:48;19.50;99.90
5476;DHT22;2760;50.000;9.194;2022-09-09T07:42:17;19.20;99.90
5476;DHT22;2760;50.000;9.194;2022-09-09T07:44:45;20.90;99.90
5476;DHT22;2760;50.000;9.194;2022-09-09T07:47:14;19.60;99.90
5476;DHT22;2760;50.000;9.194;2022-09-09T07:49:45;19.50;99.90
5476;DHT22;2760;50.000;9.194;2022-09-09T07:52:16;19.70;99.90
5476;DHT22;2760;50.000;9.194;2022-09-09T07:54:45;19.50;99.90
5476;DHT22;2760;50.000;9.194;2022-09-09T07:57:13;19.90;99.90
5476;DHT22;2760;50.000;9.194;2022-09-09T07:59:41;19.60;99.90
5476;DHT22;2760;50.000;9.194;2022-09-09T08:02:09;19.70;99.90
5476;DHT22;2760;50.000;9.194;2022-09-09T08:04:36;19.60;99.90
5476;DHT22;2760;50.000;9.194;2022-09-09T08:07:03;19.60;99.90
5476;DHT22;2760;50.000;9.194;2022-09-09T08:09:40;19.70;99.90
5476;DHT22;2760;50.000;9.194;2022-09-09T08:12:13;19.80;99.90
5476;DHT22;2760;50.000;9.194;2022-09-09T08:14:40;19.80;99.90
5476;DHT22;2760;50.000;9.194;2022-09-09T08:17:07;19.80;99.90
5476;DHT22;2760;50.000;9.194;2022-09-09T08:19:34;19.90;99.90
5476;DHT22;2760;50.000;9.194;2022-09-09T08:22:03;20.00;99.90
5476;DHT22;2760;50.000;9.194;2022-09-09T08:24:32;20.00;99.90
5476;DHT22;2760;50.000;9.194;2022-09-09T08:27:01;19.90;99.90
5476;DHT22;2760;50.000;9.194;2022-09-09T08:29:28;19.80;99.90
5476;DHT22;2760;50.000;9.194;2022-09-09T08:31:57;19.70;99.90
5476;DHT22;2760;50.000;9.194;2022-09-09T08:34:25;19.70;99.90
5476;DHT22;2760;50.000;9.194;2022-09-09T08:36:55;19.80;99.90
5476;DHT22;2760;50.000;9.194;2022-09-09T08:39:28;20.60;99.90
5476;DHT22;2760;50.000;9.194;2022-09-09T08:42:20;20.00;99.90
5476;DHT22;2760;50.000;9.194;2022-09-09T08:45:10;20.10;99.90
5476;DHT22;2760;50.000;9.194;2022-09-09T08:47:43;20.00;99.90
5476;DHT22;2760;50.000;9.194;2022-09-09T08:50:21;20.00;99.90
5476;DHT22;2760;50.000;9.194;2022-09-09T08:52:56;20.70;99.90
5476;DHT22;2760;50.000;9.194;2022-09-09T08:55:29;20.40;99.90
5476;DHT22;2760;50.000;9.194;2022-09-09T08:58:05;20.60;99.90
5476;DHT22;2760;50.000;9.194;2022-09-09T09:00:40;20.50;99.90
5476;DHT22;2760;50.000;9.194;2022-09-09T09:03:18;20.50;99.90
5476;DHT22;2760;50.000;9.194;2022-09-09T09:05:59;20.60;99.90
5476;DHT22;2760;50.000;9.194;2022-09-09T09:08:33;20.70;99.90
5476;DHT22;2760;50.000;9.194;2022-09-09T09:11:04;21.10;99.90
5476;DHT22;2760;50.000;9.194;2022-09-09T09:13:39;21.20;99.90
5476;DHT22;2760;50.000;9.194;2022-09-09T09:16:17;21.30;99.90
5476;DHT22;2760;50.000;9.194;2022-09-09T09:18:46;21.60;99.90
5476;DHT22;2760;50.000;9.194;2022-09-09T09:21:16;22.00;99.90
5476;DHT22;2760;50.000;9.194;2022-09-09T09:23:53;21.80;99.90
5476;DHT22;2760;50.000;9.194;2022-09-09T09:26:24;21.60;99.90
5476;DHT22;2760;50.000;9.194;2022-09-09T09:28:56;21.80;99.90
5476;DHT22;2760;50.000;9.194;2022-09-09T09:31:23;22.00;99.90
5476;DHT22;2760;50.000;9.194;2022-09-09T09:33:54;22.50;99.90
5476;DHT22;2760;50.000;9.194;2022-09-09T09:36:33;22.70;99.90
5476;DHT22;2760;50.000;9.194;2022-09-09T09:39:03;23.00;99.90
5476;DHT22;2760;50.000;9.194;2022-09-09T09:41:34;23.00;99.90
5476;DHT22;2760;50.000;9.194;2022-09-09T09:44:04;22.50;99.90
5476;DHT22;2760;50.000;9.194;2022-09-09T09:46:33;22.20;99.90
5476;DHT22;2760;50.000;9.194;2022-09-09T09:49:09;21.70;99.90
5476;DHT22;2760;50.000;9.194;2022-09-09T09:51:39;21.70;99.90
5476;DHT22;2760;50.000;9.194;2022-09-09T09:54:14;21.80;99.90
5476;DHT22;2760;50.000;9.194;2022-09-09T09:56:45;22.60;99.90
5476;DHT22;2760;50.000;9.194;2022-09-09T09:59:33;22.70;99.90
5476;DHT22;2760;50.000;9.194;2022-09-09T10:02:17;23.40;99.90
5476;DHT22;2760;50.000;9.194;2022-09-09T10:04:47;23.70;99.90
5476;DHT22;2760;50.000;9.194;2022-09-09T10:07:19;23.80;99.90
5476;DHT22;2760;50.000;9.194;2022-09-09T10:09:49;24.50;99.90
5476;DHT22;2760;50.000;9.194;2022-09-09T10:12:27;24.80;99.90
5476;DHT22;2760;50.000;9.194;2022-09-09T10:15:02;24.90;99.10
5476;DHT22;2760;50.000;9.194;2022-09-09T10:17:39;25.30;98.00
5476;DHT22;2760;50.000;9.194;2022-09-09T10:20:22;25.20;98.00
5476;DHT22;2760;50.000;9.194;2022-09-09T10:23:06;25.30;98.00
5476;DHT22;2760;50.000;9.194;2022-09-09T10:25:56;25.90;97.50
5476;DHT22;2760;50.000;9.194;2022-09-09T10:28:39;26.50;95.70
5476;DHT22;2760;50.000;9.194;2022-09-09T10:31:21;26.20;96.10
5476;DHT22;2760;50.000;9.194;2022-09-09T10:33:51;25.80;95.90
5476;DHT22;2760;50.000;9.194;2022-09-09T10:36:24;25.20;96.20
5476;DHT22;2760;50.000;9.194;2022-09-09T10:38:54;24.90;97.30
5476;DHT22;2760;50.000;9.194;2022-09-09T10:41:42;22.80;97.20
5476;DHT22;2760;50.000;9.194;2022-09-09T10:44:29;24.30;97.60
5476;DHT22;2760;50.000;9.194;2022-09-09T10:47:22;23.80;97.80
5476;DHT22;2760;50.000;9.194;2022-09-09T10:50:03;23.80;97.40
5476;DHT22;2760;50.000;9.194;2022-09-09T10:52:36;23.70;97.80
5476;DHT22;2760;50.000;9.194;2022-09-09T10:55:10;23.60;98.00
5476;DHT22;2760;50.000;9.194;2022-09-09T10:57:42;23.90;97.40
5476;DHT22;2760;50.000;9.194;2022-09-09T11:00:15;24.20;97.30
5476;DHT22;2760;50.000;9.194;2022-09-09T11:02:45;25.00;95.10
5476;DHT22;2760;50.000;9.194;2022-09-09T11:05:18;25.50;94.90
5476;DHT22;2760;50.000;9.194;2022-09-09T11:07:49;25.60;94.30
5476;DHT22;2760;50.000;9.194;2022-09-09T11:10:32;25.20;94.60
5476;DHT22;2760;50.000;9.194;2022-09-09T11:13:03;25.30;94.50
5476;DHT22;2760;50.000;9.194;2022-09-09T11:15:36;25.50;94.50
5476;DHT22;2760;50.000;9.194;2022-09-09T11:18:13;25.20;94.60
5476;DHT22;2760;50.000;9.194;2022-09-09T11:20:41;24.50;95.50
5476;DHT22;2760;50.000;9.194;2022-09-09T11:23:12;23.90;96.70
5476;DHT22;2760;50.000;9.194;2022-09-09T11:25:43;24.10;96.90
5476;DHT22;2760;50.000;9.194;2022-09-09T11:28:30;23.80;96.90
5476;DHT22;2760;50.000;9.194;2022-09-09T11:31:21;23.70;96.90
5476;DHT22;2760;50.000;9.194;2022-09-09T11:34:06;23.70;96.90
5476;DHT22;2760;50.000;9.194;2022-09-09T11:36:56;24.00;97.00
5476;DHT22;2760;50.000;9.194;2022-09-09T11:39:47;24.70;97.50
5476;DHT22;2760;50.000;9.194;2022-09-09T11:42:21;25.70;94.90
5476;DHT22;2760;50.000;9.194;2022-09-09T11:44:49;25.70;94.70
5476;DHT22;2760;50.000;9.194;2022-09-09T11:47:20;25.90;94.30
5476;DHT22;2760;50.000;9.194;2022-09-09T11:49:51;26.00;94.10
5476;DHT22;2760;50.000;9.194;2022-09-09T11:52:23;26.40;94.00
5476;DHT22;2760;50.000;9.194;2022-09-09T11:54:54;26.80;93.10
5476;DHT22;2760;50.000;9.194;2022-09-09T11:57:26;27.20;92.90
5476;DHT22;2760;50.000;9.194;2022-09-09T11:59:57;27.00;91.90
5476;DHT22;2760;50.000;9.194;2022-09-09T12:02:26;26.70;92.50
5476;DHT22;2760;50.000;9.194;2022-09-09T12:05:00;25.70;92.40
5476;DHT22;2760;50.000;9.194;2022-09-09T12:07:36;24.70;93.40
5476;DHT22;2760;50.000;9.194;2022-09-09T12:10:20;24.10;93.50
5476;DHT22;2760;50.000;9.194;2022-09-09T12:12:48;23.60;93.20
5476;DHT22;2760;50.000;9.194;2022-09-09T12:15:28;23.70;93.50
5476;DHT22;2760;50.000;9.194;2022-09-09T12:17:56;22.40;93.30
5476;DHT22;2760;50.000;9.194;2022-09-09T12:20:31;23.00;94.10
5476;DHT22;2760;50.000;9.194;2022-09-09T12:23:19;23.20;94.50
5476;DHT22;2760;50.000;9.194;2022-09-09T12:26:17;23.30;94.20
5476;DHT22;2760;50.000;9.194;2022-09-09T12:28:58;24.30;94.20
5476;DHT22;2760;50.000;9.194;2022-09-09T12:31:34;24.80;93.90
5476;DHT22;2760;50.000;9.194;2022-09-09T12:34:09;25.30;93.70
5476;DHT22;2760;50.000;9.194;2022-09-09T12:36:39;25.50;93.90
5476;DHT22;2760;50.000;9.194;2022-09-09T12:39:15;25.60;93.60
5476;DHT22;2760;50.000;9.194;2022-09-09T12:41:51;25.60;93.50
5476;DHT22;2760;50.000;9.194;2022-09-09T12:44:23;25.20;93.90
5476;DHT22;2760;50.000;9.194;2022-09-09T12:46:51;25.20;93.60
5476;DHT22;2760;50.000;9.194;2022-09-09T12:49:38;24.80;94.00
5476;DHT22;2760;50.000;9.194;2022-09-09T12:52:14;24.60;95.00
5476;DHT22;2760;50.000;9.194;2022-09-09T12:54:45;25.20;93.90
5476;DHT22;2760;50.000;9.194;2022-09-09T12:57:14;26.00;93.10
5476;DHT22;2760;50.000;9.194;2022-09-09T12:59:43;26.00;92.70
5476;DHT22;2760;50.000;9.194;2022-09-09T13:02:18;23.70;92.20
5476;DHT22;2760;50.000;9.194;2022-09-09T13:04:45;25.40;93.10
5476;DHT22;2760;50.000;9.194;2022-09-09T13:07:14;25.20;93.50
5476;DHT22;2760;50.000;9.194;2022-09-09T13:09:42;24.80;93.60
5476;DHT22;2760;50.000;9.194;2022-09-09T13:12:14;24.80;94.00
5476;DHT22;2760;50.000;9.194;2022-09-09T13:14:43;24.90;93.90
5476;DHT22;2760;50.000;9.194;2022-09-09T13:17:19;24.80;93.70
5476;DHT22;2760;50.000;9.194;2022-09-09T13:19:46;24.60;94.00
5476;DHT22;2760;50.000;9.194;2022-09-09T13:22:21;24.70;94.30
5476;DHT22;2760;50.000;9.194;2022-09-09T13:24:59;24.40;94.60
5476;DHT22;2760;50.000;9.194;2022-09-09T13:27:31;24.00;95.40
5476;DHT22;2760;50.000;9.194;2022-09-09T13:30:00;23.90;94.90
5476;DHT22;2760;50.000;9.194;2022-09-09T13:32:28;23.70;95.40
5476;DHT22;2760;50.000;9.194;2022-09-09T13:34:58;23.30;95.30
5476;DHT22;2760;50.000;9.194;2022-09-09T13:37:31;23.70;94.90
5476;DHT22;2760;50.000;9.194;2022-09-09T13:40:01;23.90;94.50
5476;DHT22;2760;50.000;9.194;2022-09-09T13:42:29;24.10;93.90
5476;DHT22;2760;50.000;9.194;2022-09-09T13:44:58;23.90;93.60
5476;DHT22;2760;50.000;9.194;2022-09-09T13:47:30;23.70;93.90
5476;DHT22;2760;50.000;9.194;2022-09-09T13:49:58;23.70;93.80
5476;DHT22;2760;50.000;9.194;2022-09-09T13:52:28;23.70;93.80
5476;DHT22;2760;50.000;9.194;2022-09-09T13:54:56;23.60;93.20
5476;DHT22;2760;50.000;9.194;2022-09-09T13:57:24;23.50;93.30
5476;DHT22;2760;50.000;9.194;2022-09-09T13:59:52;23.40;93.20
5476;DHT22;2760;50.000;9.194;2022-09-09T14:02:20;23.10;93.40
5476;DHT22;2760;50.000;9.194;2022-09-09T14:04:49;23.10;93.60
5476;DHT22;2760;50.000;9.194;2022-09-09T14:07:17;23.00;93.90
5476;DHT22;2760;50.000;9.194;2022-09-09T14:09:45;23.00;93.90
5476;DHT22;2760;50.000;9.194;2022-09-09T14:12:15;22.90;94.50
5476;DHT22;2760;50.000;9.194;2022-09-09T14:14:43;22.70;95.10
5476;DHT22;2760;50.000;9.194;2022-09-09T14:17:10;22.90;95.00
5476;DHT22;2760;50.000;9.194;2022-09-09T14:19:37;22.80;95.30
5476;DHT22;2760;50.000;9.194;2022-09-09T14:22:04;22.60;95.50
5476;DHT22;2760;50.000;9.194;2022-09-09T14:24:31;22.40;95.70
5476;DHT22;2760;50.000;9.194;2022-09-09T14:26:59;22.30;96.00
5476;DHT22;2760;50.000;9.194;2022-09-09T14:29:26;22.10;96.30
5476;DHT22;2760;50.000;9.194;2022-09-09T14:31:53;22.20;96.40
5476;DHT22;2760;50.000;9.194;2022-09-09T14:34:20;22.20;96.60
5476;DHT22;2760;50.000;9.194;2022-09-09T14:36:47;22.10;96.60
5476;DHT22;2760;50.000;9.194;2022-09-09T14:39:18;22.20;96.60
5476;DHT22;2760;50.000;9.194;2022-09-09T14:41:44;22.10;96.30
5476;DHT22;2760;50.000;9.194;2022-09-09T14:44:13;22.50;96.50
5476;DHT22;2760;50.000;9.194;2022-09-09T14:46:41;22.70;95.90
5476;DHT22;2760;50.000;9.194;2022-09-09T14:49:08;22.90;95.70
5476;DHT22;2760;50.000;9.194;2022-09-09T14:51:36;22.60;96.00
5476;DHT22;2760;50.000;9.194;2022-09-09T14:54:03;22.50;96.50
5476;DHT22;2760;50.000;9.194;2022-09-09T14:56:32;22.50;96.40
5476;DHT22;2760;50.000;9.194;2022-09-09T14:59:00;22.60;96.80
5476;DHT22;2760;50.000;9.194;2022-09-09T15:01:29;22.50;97.80
5476;DHT22;2760;50.000;9.194;2022-09-09T15:03:59;22.10;98.30
5476;DHT22;2760;50.000;9.194;2022-09-09T15:06:27;22.00;98.10
5476;DHT22;2760;50.000;9.194;2022-09-09T15:08:55;21.60;97.70
5476;DHT22;2760;50.000;9.194;2022-09-09T15:11:25;21.50;98.90
5476;DHT22;2760;50.000;9.194;2022-09-09T15:13:53;21.70;98.80
5476;DHT22;2760;50.000;9.194;2022-09-09T15:16:22;21.40;99.10
5476;DHT22;2760;50.000;9.194;2022-09-09T15:18:53;21.10;99.90
5476;DHT22;2760;50.000;9.194;2022-09-09T15:21:22;21.00;99.90
5476;DHT22;2760;50.000;9.194;2022-09-09T15:23:50;20.70;99.90
5476;DHT22;2760;50.000;9.194;2022-09-09T15:26:17;20.70;99.90
5476;DHT22;2760;50.000;9.194;2022-09-09T15:28:45;19.20;99.90
5476;DHT22;2760;50.000;9.194;2022-09-09T15:31:14;20.60;99.90
5476;DHT22;2760;50.000;9.194;2022-09-09T15:33:47;20.60;99.90
5476;DHT22;2760;50.000;9.194;2022-09-09T15:36:17;20.90;99.90
5476;DHT22;2760;50.000;9.194;2022-09-09T15:38:44;20.80;99.90
5476;DHT22;2760;50.000;9.194;2022-09-09T15:41:12;21.60;99.90
5476;DHT22;2760;50.000;9.194;2022-09-09T15:43:43;20.70;99.90
5476;DHT22;2760;50.000;9.194;2022-09-09T15:46:29;20.70;99.90
5476;DHT22;2760;50.000;9.194;2022-09-09T15:49:03;20.60;99.90
5476;DHT22;2760;50.000;9.194;2022-09-09T15:51:32;20.60;99.90
5476;DHT22;2760;50.000;9.194;2022-09-09T15:53:59;19.90;99.90
5476;DHT22;2760;50.000;9.194;2022-09-09T15:56:27;20.70;99.90
5476;DHT22;2760;50.000;9.194;2022-09-09T15:58:56;20.70;99.90
5476;DHT22;2760;50.000;9.194;2022-09-09T16:01:25;20.60;99.90
5476;DHT22;2760;50.000;9.194;2022-09-09T16:03:54;20.40;99.90
5476;DHT22;2760;50.000;9.194;2022-09-09T16:06:22;20.50;99.90
5476;DHT22;2760;50.000;9.194;2022-09-09T16:08:52;20.50;99.90
5476;DHT22;2760;50.000;9.194;2022-09-09T16:11:22;20.40;99.90
5476;DHT22;2760;50.000;9.194;2022-09-09T16:13:52;20.60;99.90
5476;DHT22;2760;50.000;9.194;2022-09-09T16:16:22;20.80;99.90
5476;DHT22;2760;50.000;9.194;2022-09-09T16:18:51;20.70;99.90
5476;DHT22;2760;50.000;9.194;2022-09-09T16:21:20;21.90;99.90
5476;DHT22;2760;50.000;9.194;2022-09-09T16:23:51;20.70;99.90
5476;DHT22;2760;50.000;9.194;2022-09-09T16:26:22;20.90;99.90
5476;DHT22;2760;50.000;9.194;2022-09-09T16:28:49;20.90;99.90
5476;DHT22;2760;50.000;9.194;2022-09-09T16:31:18;20.90;99.90